CA-0488 weather

CLOSED Toronto Aerodrome
Toronto, Ontario, Canada

Public forecast

Using degrees Celsius for public forecast. Weather courtesy of forecast.io.

Closest aviation weather report (METAR) to Toronto Aerodrome

Closest report is Billy Bishop Toronto City Centre Airport, 7.8 nm (14.5 km) SSE. Retrieved 2020/01/21 07:00 UTC (49 minutes ago):

CYTZ 210700Z AUTO 31002KT 9SM OVC046 M06/M09 A3048 RMK SLP327

Closest aviation forecast (TAF) to Toronto Aerodrome

Closest forecast is Billy Bishop Toronto City Centre Airport, 7.8 nm (14.5 km) SSE. Retrieved 2020/01/21 08:41 UTC (0 seconds ago):

TAF CYTZ 210738Z 2108/2208 VRB03KT P6SM OVC040 FM211500 26012KT P6SM SCT030 TEMPO 2115/2118 BKN140 FM211800 25015KT P6SM BKN030 OVC120 RMK FCST BASED ON AUTO OBS NXT FCST BY 211400Z